Nearby METAR Reports

 

K6B9 - Skaneateles, New York, USA
Distance from station: SE 7mi, 12km
Updated: Wed, 07-Dec-2022 10:55am EST
Mist, Mostly cloudy
Mist, Mostly cloudy
 Wind from calm
Wind: Calm
Temperature: 50°F , 10°C
Dew Point: 50°F , 10°C
Humidity: 100%
Barometer: 30.09 inHg , 1019 hPa
Summary: Mist
Clouds: Mostly cloudy
Visibility: 2 1/2 miles , 4 km
Cloud details: Few Clouds 900 ft
Mostly cloudy 1300 ft
2022/12/07 15:55 K6B9 071555Z AUTO 00000KT 2 1/2SM BR FEW009 BKN013 10/10 A3009 RMK AO2 P0002
KSYR - Syracuse, New York, USA
Distance from station: ENE 24mi, 38km
Updated: Wed, 07-Dec-2022 10:54am EST
Light rain, Mist, Overcast
Light rain, Mist, Overcast
 Wind from calm
Wind: Calm
Temperature: 52°F , 11°C
Dew Point: 50°F , 10°C
Humidity: 94%
Barometer: 30.10 inHg , 1019.3 hPa
Summary: Light rain, Mist
Clouds: Overcast
Visibility: 3 miles , 5 km
Cloud details: Overcast 1600 ft
2022/12/07 15:54 KSYR 071554Z 00000KT 3SM -RA BR OVC016 11/10 A3010 RMK AO2 SLP192 P0000 T01060100
 
KFZY - Fulton, New York, USA
Distance from station: NNE 26mi, 41km
Updated: Wed, 07-Dec-2022 10:54am EST
Mist, Overcast
Mist, Overcast
 Wind from calm
Wind: Calm
Temperature: 48°F , 9°C
Dew Point: 48°F , 9°C
Humidity: 100%
Barometer: 30.11 inHg , 1019.6 hPa
Summary: Mist
Clouds: Overcast
Visibility: 5 miles , 8 km
Cloud details: Overcast 1200 ft
2022/12/07 15:54 KFZY 071554Z AUTO 00000KT 5SM BR OVC012 09/09 A3011 RMK AO2 RAE11 SLP199 P0001 T00940089
KN03 - Cortland, New York, USA
Distance from station: SSE 32mi, 51km
Updated: Wed, 07-Dec-2022 10:55am EST
Light rain, Overcast
Light rain, Overcast
 Wind from calm
Wind: Calm
Temperature: 48°F , 9°C
Dew Point: 46°F , 8°C
Humidity: 94%
Barometer: 30.10 inHg , 1019.3 hPa
Summary: Light rain
Clouds: Overcast
Visibility: 3 miles , 5 km
Cloud details: Mostly cloudy 900 ft
Overcast 1300 ft
2022/12/07 15:55 KN03 071555Z AUTO 00000KT 3SM -RA BKN009 OVC013 09/08 A3010 RMK AO2
 
KSDC - Williamson/Sodus, New York, USA
Distance from station: WNW 34mi, 54km
Updated: Wed, 07-Dec-2022 11:15am EST
Overcast
Overcast
 Wind from calm
Wind: Calm
Temperature: 46°F , 8°C
Dew Point: 45°F , 7°C
Humidity: 93%
Barometer: 30.12 inHg , 1020 hPa
Clouds: Overcast
Visibility: 10 miles , 16 km
Cloud details: Partly cloudy 400 ft
Overcast 900 ft
2022/12/07 16:15 KSDC 071615Z AUTO 00000KT 10SM SCT004 OVC009 08/07 A3012 RMK AO2
KPEO - Penn Yan, New York, USA
Distance from station: SW 35mi, 57km
Updated: Wed, 07-Dec-2022 10:53am EST
Light rain, Mist, Mostly cloudy
Light rain, Mist, Mostly cloudy
 Wind from calm
Wind: Calm
Temperature: 48°F , 9°C
Dew Point: 48°F , 9°C
Humidity: 100%
Barometer: 30.10 inHg , 1019.3 hPa
Summary: Light rain, Mist
Clouds: Mostly cloudy
Visibility: 4 miles , 6 km
Cloud details: Mostly cloudy 1300 ft
2022/12/07 15:53 KPEO 071553Z AUTO 00000KT 4SM -RA BR BKN013 09/09 A3010 RMK AO2 SLP199 P0003 T00890089
 
KITH - Ithaca/Tompkins, New York, USA
Distance from station: S 37mi, 59km
Updated: Wed, 07-Dec-2022 10:56am EST
Light rain, Mist, Overcast
Light rain, Mist, Overcast
 Wind from calm
Wind: Calm
Temperature: 48°F , 9°C
Dew Point: 48°F , 9°C
Humidity: 100%
Barometer: 30.10 inHg , 1019.3 hPa
Summary: Light rain, Mist
Clouds: Overcast
Visibility: 4 miles , 6 km
Cloud details: Overcast 900 ft
2022/12/07 15:56 KITH 071556Z 00000KT 4SM -RA BR OVC009 09/09 A3010 RMK AO2 SLP196 P0009 T00940094
KVGC - Hamilton Municip, New York, USA
Distance from station: E 50mi, 80km
Updated: Wed, 07-Dec-2022 10:55am EST
Overcast
Overcast
 Wind from SSE
Wind: SSE 5 mph , 7 km/h
Temperature: 50°F , 10°C
Wind Chill: 48°F , 9°C
Dew Point: 50°F , 10°C
Humidity: 100%
Barometer: 30.11 inHg , 1019.6 hPa
Clouds: Overcast
Visibility: 5 miles , 8 km
Cloud details: Partly cloudy 3400 ft
Partly cloudy 4600 ft
Overcast 5000 ft
2022/12/07 15:55 KVGC 071555Z AUTO 15004KT 5SM SCT034 SCT046 OVC050 10/10 A3011 RMK AO2 P0002